Time;durP1;ratioP1;P1;durP2;ratioP2;P2;SDS_P1;SDS_P2;PMS_P1;PMS_P2;Temp;Humidity;BMP_temperature;BMP_pressure;BME280_temperature;BME280_humidity;BME280_pressure;Samples;Min_cycle;Max_cycle;Signal;HPM_P1;HPM_P2
2023/08/29 00:01:15;;;;;;;2.40;2.20;;;;;;;11.42;100.00;100682.31;4964170;28;20077;-72
2023/08/29 00:03:40;;;;;;;3.40;2.40;;;;;;;11.49;100.00;100693.16;5004638;28;20080;-73
2023/08/29 00:06:05;;;;;;;3.77;2.70;;;;;;;11.49;100.00;100696.66;4989429;28;20088;-72
2023/08/29 00:08:34;;;;;;;3.90;2.27;;;;;;;11.49;100.00;100682.47;4993612;28;20022;-72
2023/08/29 00:11:04;;;;;;;5.53;2.80;;;;;;;11.47;100.00;100674.63;4982248;28;20014;-73
2023/08/29 00:13:30;;;;;;;3.50;2.38;;;;;;;11.52;100.00;100674.09;4979041;28;20037;-72
2023/08/29 00:15:55;;;;;;;5.90;2.90;;;;;;;11.46;100.00;100674.78;4996008;28;20025;-73
2023/08/29 00:18:21;;;;;;;4.60;2.17;;;;;;;11.41;100.00;100667.28;4976279;28;20030;-73
2023/08/29 00:20:48;;;;;;;3.30;2.10;;;;;;;11.37;100.00;100666.78;4981032;28;20026;-73
2023/08/29 00:23:13;;;;;;;3.60;2.42;;;;;;;11.32;100.00;100666.44;4977822;28;20034;-73
2023/08/29 00:25:39;;;;;;;4.53;2.30;;;;;;;11.31;100.00;100655.94;4991525;28;20023;-73
2023/08/29 00:28:04;;;;;;;9.87;3.10;;;;;;;11.29;100.00;100656.09;4992577;28;20758;-72
2023/08/29 00:30:37;;;;;;;4.97;1.98;;;;;;;11.26;100.00;100653.78;4983597;28;20026;-73
2023/08/29 00:33:04;;;;;;;5.05;1.90;;;;;;;11.22;100.00;100652.44;4976480;28;20511;-74
2023/08/29 00:35:29;;;;;;;;;;;;;;;11.18;100.00;100651.09;4985722;28;20081;-72
2023/08/29 00:37:54;;;;;;;2.80;1.90;;;;;;;11.18;100.00;100653.78;4961430;28;19945;-72
2023/08/29 00:40:30;;;;;;;4.35;2.25;;;;;;;11.17;100.00;100650.28;4985538;28;20042;-73
2023/08/29 00:42:55;;;;;;;3.63;2.30;;;;;;;11.15;100.00;100648.78;4979071;28;20037;-72
2023/08/29 00:45:22;;;;;;;6.23;2.30;;;;;;;11.13;100.00;100650.78;4983631;28;20697;-73
2023/08/29 00:47:47;;;;;;;3.97;2.20;;;;;;;11.11;100.00;100644.78;4971315;28;20036;-73
2023/08/29 00:50:13;;;;;;;3.57;2.57;;;;;;;11.01;100.00;100649.47;4973313;28;20409;-73
2023/08/29 00:52:38;;;;;;;5.50;2.30;;;;;;;10.97;100.00;100644.44;4978945;28;20034;-73
2023/08/29 00:55:04;;;;;;;3.30;2.10;;;;;;;10.98;100.00;100646.13;4997964;28;20280;-73
2023/08/29 00:57:29;;;;;;;3.15;2.83;;;;;;;10.91;100.00;100650.47;4976850;28;20022;-73
2023/08/29 00:59:55;;;;;;;5.10;2.43;;;;;;;10.89;100.00;100631.09;4974858;28;20037;-72
2023/08/29 01:02:20;;;;;;;3.13;2.20;;;;;;;10.95;100.00;100638.41;4983948;28;20030;-73
2023/08/29 01:04:45;;;;;;;3.27;2.37;;;;;;;10.97;100.00;100635.59;4974879;28;20042;-72
2023/08/29 01:07:12;;;;;;;3.93;2.10;;;;;;;10.90;100.00;100632.75;4960472;28;20025;-72
2023/08/29 01:09:37;;;;;;;;;;;;;;;10.94;100.00;100638.59;4977965;28;20241;-73
2023/08/29 01:12:10;;;;;;;;;;;;;;;10.85;100.00;100627.09;4970856;28;20399;-73
2023/08/29 01:14:58;;;;;;;3.15;2.28;;;;;;;10.82;100.00;100627.44;4951782;28;19913;-73
2023/08/29 01:17:34;;;;;;;3.55;2.70;;;;;;;10.83;100.00;100639.75;4981885;28;20034;-72
2023/08/29 01:20:01;;;;;;;4.18;2.72;;;;;;;10.84;100.00;100640.59;4979220;28;20133;-73
2023/08/29 01:22:27;;;;;;;4.80;4.07;;;;;;;10.92;100.00;100651.28;4988776;28;20165;-73
2023/08/29 01:25:17;;;;;;;5.13;3.77;;;;;;;10.93;100.00;100656.47;4956069;28;20030;-73
2023/08/29 01:27:44;;;;;;;9.25;3.55;;;;;;;10.99;100.00;100669.16;4974767;28;20050;-73
2023/08/29 01:30:10;;;;;;;6.78;4.45;;;;;;;11.09;100.00;100684.19;4977217;28;20019;-73
2023/08/29 01:32:36;;;;;;;5.68;3.53;;;;;;;10.97;100.00;100687.19;4989069;28;20125;-73
2023/08/29 01:35:02;;;;;;;3.22;2.75;;;;;;;10.89;100.00;100678.34;4953312;28;20038;-73
2023/08/29 01:37:28;;;;;;;4.60;2.97;;;;;;;10.85;100.00;100683.16;4990290;28;20038;-72
2023/08/29 01:39:53;;;;;;;3.33;2.85;;;;;;;10.81;100.00;100676.47;4987433;28;20084;-73
2023/08/29 01:42:18;;;;;;;3.83;2.57;;;;;;;10.81;100.00;100681.00;4994263;28;20121;-73
2023/08/29 01:44:45;;;;;;;6.65;3.22;;;;;;;10.81;100.00;100671.13;4983385;28;20053;-73
2023/08/29 01:47:10;;;;;;;4.83;2.53;;;;;;;10.83;100.00;100658.47;4989010;28;20485;-73
2023/08/29 01:49:37;;;;;;;5.40;2.93;;;;;;;10.85;100.00;100660.97;4994584;28;20065;-73
2023/08/29 01:52:02;;;;;;;5.97;3.55;;;;;;;10.77;100.00;100664.50;4993580;28;20296;-72
2023/08/29 01:54:28;;;;;;;8.18;2.88;;;;;;;10.75;100.00;100680.66;4994174;28;20572;-73
2023/08/29 01:56:55;;;;;;;4.87;3.10;;;;;;;10.69;100.00;100678.63;4993331;28;20147;-73
2023/08/29 01:59:21;;;;;;;6.20;3.22;;;;;;;10.69;100.00;100677.81;4996448;28;20089;-73
2023/08/29 02:01:48;;;;;;;3.95;2.97;;;;;;;10.63;100.00;100678.47;4992295;28;20089;-73
2023/08/29 02:04:13;;;;;;;3.33;2.27;;;;;;;10.61;100.00;100681.31;4996580;28;20513;-72
2023/08/29 02:06:39;;;;;;;7.80;3.10;;;;;;;10.63;100.00;100678.47;4980384;28;20280;-73
2023/08/29 02:09:04;;;;;;;3.60;3.00;;;;;;;10.62;100.00;100671.47;4994495;28;20088;-73
2023/08/29 02:11:30;;;;;;;4.03;2.43;;;;;;;10.60;100.00;100681.47;4984401;28;20027;-72
2023/08/29 02:14:00;;;;;;;7.65;2.75;;;;;;;10.65;100.00;100681.81;4995228;28;20884;-73
2023/08/29 02:16:25;;;;;;;5.15;3.33;;;;;;;10.64;100.00;100685.50;4984219;28;20117;-75
2023/08/29 02:18:54;;;;;;;4.97;3.30;;;;;;;10.62;100.00;100682.13;4987208;28;20480;-73
2023/08/29 02:21:19;;;;;;;5.07;4.22;;;;;;;10.60;100.00;100690.31;4995596;28;20066;-72
2023/08/29 02:23:46;;;;;;;5.33;3.33;;;;;;;10.66;100.00;100695.00;4974717;28;20112;-72
2023/08/29 02:26:11;;;;;;;3.88;3.47;;;;;;;10.65;100.00;100692.47;4991151;28;20030;-72
2023/08/29 02:28:37;;;;;;;6.07;4.80;;;;;;;10.65;100.00;100681.81;4991155;28;20022;-72
2023/08/29 02:31:07;;;;;;;5.88;3.40;;;;;;;10.64;100.00;100682.81;5006539;28;20025;-72
2023/08/29 02:33:35;;;;;;;5.65;3.55;;;;;;;10.63;100.00;100683.78;4988999;28;20037;-73
2023/08/29 02:36:01;;;;;;;5.15;3.65;;;;;;;10.62;100.00;100677.63;4996745;28;20014;-73
2023/08/29 02:38:26;;;;;;;6.17;3.60;;;;;;;10.65;100.00;100679.13;4966924;28;20112;-72
2023/08/29 02:40:51;;;;;;;7.37;4.33;;;;;;;10.59;100.00;100683.31;4980478;28;20843;-72
2023/08/29 02:43:17;;;;;;;5.33;3.17;;;;;;;10.54;100.00;100681.13;4960848;28;20124;-74
2023/08/29 02:45:42;;;;;;;9.23;4.80;;;;;;;10.55;100.00;100682.78;5007043;28;20038;-75
2023/08/29 02:48:07;;;;;;;4.53;3.67;;;;;;;10.49;100.00;100687.97;4980853;28;20073;-74
2023/08/29 02:50:33;;;;;;;11.40;5.93;;;;;;;10.49;100.00;100690.63;4971510;28;20018;-72
2023/08/29 02:52:59;;;;;;;7.25;4.43;;;;;;;10.51;100.00;100686.81;4974459;28;20642;-72
2023/08/29 02:55:24;;;;;;;6.07;3.42;;;;;;;10.42;100.00;100693.13;4990704;28;20404;-73
2023/08/29 02:57:50;;;;;;;5.45;4.32;;;;;;;10.37;100.00;100690.06;4984148;28;20050;-72
2023/08/29 03:00:15;;;;;;;4.23;3.60;;;;;;;10.37;100.00;100694.59;4985075;28;20044;-74
2023/08/29 03:02:42;;;;;;;8.88;5.32;;;;;;;10.43;100.00;100704.63;4987577;28;20373;-72
2023/08/29 03:05:08;;;;;;;4.05;3.65;;;;;;;10.43;100.00;100721.47;4990443;28;20014;-75
2023/08/29 03:07:33;;;;;;;4.32;3.17;;;;;;;10.30;100.00;100697.06;4999211;28;20034;-73
2023/08/29 03:09:59;;;;;;;6.37;3.30;;;;;;;10.33;100.00;100704.75;4982760;28;20036;-73
2023/08/29 03:12:24;;;;;;;8.40;5.30;;;;;;;10.35;100.00;100703.59;4982186;28;20694;-71
2023/08/29 03:14:56;;;;;;;5.43;3.63;;;;;;;10.35;100.00;100703.59;4988959;28;20034;-73
2023/08/29 03:17:22;;;;;;;5.93;3.95;;;;;;;10.28;100.00;100693.72;4966061;28;20581;-72
2023/08/29 03:19:48;;;;;;;4.13;2.97;;;;;;;10.26;100.00;100695.72;4974075;28;20038;-73
2023/08/29 03:22:14;;;;;;;7.18;4.88;;;;;;;10.27;100.00;100695.53;4984578;28;20029;-72
2023/08/29 03:24:44;;;;;;;8.03;4.03;;;;;;;10.33;100.00;100699.44;4996514;28;20041;-72
2023/08/29 03:27:09;;;;;;;6.47;4.47;;;;;;;10.29;100.00;100692.72;5006498;28;20041;-72
2023/08/29 03:29:35;;;;;;;5.03;3.80;;;;;;;10.28;100.00;100691.91;5006532;28;20026;-73
2023/08/29 03:32:00;;;;;;;4.20;3.80;;;;;;;10.24;100.00;100684.34;4979722;28;20038;-72
2023/08/29 03:34:25;;;;;;;6.30;4.97;;;;;;;10.17;100.00;100678.81;4986401;28;20019;-73
2023/08/29 03:36:51;;;;;;;6.77;3.90;;;;;;;10.13;100.00;100666.78;4986593;28;20031;-73
2023/08/29 03:39:16;;;;;;;5.73;4.40;;;;;;;10.10;100.00;100664.47;4981061;28;20840;-72
2023/08/29 03:41:41;;;;;;;5.73;3.63;;;;;;;10.10;100.00;100651.94;4987288;28;20068;-74
2023/08/29 03:44:07;;;;;;;6.13;4.70;;;;;;;10.22;100.00;100663.16;4990106;28;20034;-73
2023/08/29 03:46:32;;;;;;;5.97;4.33;;;;;;;10.25;100.00;100659.31;4990934;28;20062;-72
2023/08/29 03:48:58;;;;;;;5.83;3.97;;;;;;;10.25;100.00;100656.66;4979843;28;20109;-72
2023/08/29 03:51:23;;;;;;;6.50;4.13;;;;;;;10.35;100.00;100660.06;4976877;28;20057;-72
2023/08/29 03:53:49;;;;;;;7.90;4.23;;;;;;;10.40;100.00;100668.41;4971197;28;20038;-72
2023/08/29 03:56:15;;;;;;;10.20;5.30;;;;;;;10.42;100.00;100677.09;4964179;28;20022;-72
2023/08/29 03:58:40;;;;;;;;;;;;;;;10.43;100.00;100675.25;4962361;28;20540;-72
2023/08/29 04:01:07;;;;;;;5.88;4.38;;;;;;;10.37;100.00;100674.06;4978072;28;19949;-72
2023/08/29 04:03:33;;;;;;;7.15;4.63;;;;;;;10.35;100.00;100670.75;5002852;28;20551;-72
2023/08/29 04:05:58;;;;;;;6.33;4.30;;;;;;;10.39;100.00;100666.72;5006909;28;20061;-72
2023/08/29 04:08:23;;;;;;;5.80;4.23;;;;;;;10.45;100.00;100671.44;4997745;28;20288;-73
2023/08/29 04:10:49;;;;;;;7.63;4.77;;;;;;;10.47;100.00;100673.94;4997466;28;20083;-72
2023/08/29 04:13:14;;;;;;;5.00;3.93;;;;;;;10.47;100.00;100664.09;4975703;28;20030;-73
2023/08/29 04:15:40;;;;;;;8.27;5.38;;;;;;;10.48;100.00;100660.41;4983104;28;20041;-73
2023/08/29 04:18:07;;;;;;;14.07;5.82;;;;;;;10.50;100.00;100663.75;4953798;28;20034;-73
2023/08/29 04:20:33;;;;;;;8.52;5.05;;;;;;;10.51;100.00;100653.91;4994575;28;20022;-72
2023/08/29 04:23:02;;;;;;;7.15;5.07;;;;;;;10.56;100.00;100644.44;4986855;28;20504;-72
2023/08/29 04:25:28;;;;;;;14.93;6.38;;;;;;;10.63;100.00;100655.28;4969581;28;20045;-73
2023/08/29 04:27:54;;;;;;;7.57;5.95;;;;;;;10.72;100.00;100651.63;4971851;28;20413;-72
2023/08/29 04:30:20;;;;;;;10.10;7.30;;;;;;;10.80;100.00;100657.97;4983351;28;20073;-72
2023/08/29 04:32:47;;;;;;;12.15;7.30;;;;;;;10.93;100.00;100653.81;4992107;28;20297;-72
2023/08/29 04:35:12;;;;;;;17.83;9.55;;;;;;;11.14;100.00;100660.44;4988742;28;20424;-73
2023/08/29 04:37:38;;;;;;;14.10;8.80;;;;;;;11.22;100.00;100657.78;4980499;28;20041;-72
2023/08/29 04:40:07;;;;;;;17.50;9.70;;;;;;;11.34;100.00;100660.94;4961931;28;20088;-72
2023/08/29 04:42:33;;;;;;;14.23;8.88;;;;;;;11.33;100.00;100654.78;4994038;28;20061;-72
2023/08/29 04:45:02;;;;;;;15.07;8.82;;;;;;;11.34;100.00;100651.09;5002673;28;20076;-73
2023/08/29 04:47:32;;;;;;;12.57;9.98;;;;;;;11.36;100.00;100641.06;4992463;28;20436;-72
2023/08/29 04:49:58;;;;;;;13.63;8.45;;;;;;;11.38;100.00;100647.06;4972485;28;20029;-72
2023/08/29 04:52:26;;;;;;;14.10;8.95;;;;;;;11.38;100.00;100646.25;4964119;28;20022;-72
2023/08/29 04:54:52;;;;;;;14.10;7.85;;;;;;;11.43;100.00;100632.38;4967014;28;20026;-72
2023/08/29 04:57:17;;;;;;;12.77;8.23;;;;;;;11.52;100.00;100636.66;4993707;28;20492;-74
2023/08/29 04:59:42;;;;;;;11.50;8.63;;;;;;;11.63;100.00;100633.63;4992559;28;20042;-74
2023/08/29 05:02:08;;;;;;;11.57;7.72;;;;;;;11.78;100.00;100636.44;4971659;28;20027;-72
2023/08/29 05:04:34;;;;;;;11.00;7.30;;;;;;;11.91;100.00;100630.56;4980468;28;20034;-71
2023/08/29 05:06:59;;;;;;;15.90;9.13;;;;;;;12.06;100.00;100649.38;4996806;28;20084;-73
2023/08/29 05:09:25;;;;;;;16.65;10.02;;;;;;;12.10;100.00;100640.81;4969185;28;20135;-72
2023/08/29 05:11:50;;;;;;;13.40;9.67;;;;;;;12.22;100.00;100649.28;4985167;28;20031;-72
2023/08/29 05:14:15;;;;;;;14.67;8.23;;;;;;;12.28;100.00;100642.41;4987625;28;20035;-76
2023/08/29 05:16:42;;;;;;;16.27;11.07;;;;;;;12.31;100.00;100637.53;4991107;28;20532;-72
2023/08/29 05:19:08;;;;;;;13.53;7.73;;;;;;;12.39;100.00;100634.00;4979573;28;20026;-72
2023/08/29 05:21:34;;;;;;;9.90;7.77;;;;;;;12.45;100.00;100635.94;4974346;28;20039;-72
2023/08/29 05:24:00;;;;;;;14.15;9.70;;;;;;;12.50;100.00;100630.88;4986295;28;20261;-73
2023/08/29 05:26:25;;;;;;;;;;;;;;;12.60;100.00;100626.13;5004878;28;20072;-73
2023/08/29 05:28:51;;;;;;;15.10;8.48;;;;;;;12.73;100.00;100636.25;4974514;28;19996;-73
2023/08/29 05:31:16;;;;;;;15.48;8.68;;;;;;;12.79;100.00;100629.34;4999683;28;20041;-72
2023/08/29 05:33:42;;;;;;;14.93;8.73;;;;;;;12.84;100.00;100629.63;4982099;28;20121;-74
2023/08/29 05:36:07;;;;;;;15.73;9.47;;;;;;;12.92;100.00;100628.72;5005537;28;20477;-75
2023/08/29 05:38:32;;;;;;;15.60;10.60;;;;;;;12.98;100.00;100618.13;4987970;28;20579;-73
2023/08/29 05:40:58;;;;;;;15.87;8.17;;;;;;;13.12;100.00;100631.75;4979235;28;20057;-73
2023/08/29 05:43:23;;;;;;;13.10;8.87;;;;;;;13.18;100.00;100639.91;5004862;28;20030;-72
2023/08/29 05:45:48;;;;;;;12.70;8.57;;;;;;;13.29;100.00;100641.31;4998951;28;20034;-73
2023/08/29 05:48:14;;;;;;;12.90;9.27;;;;;;;13.40;100.00;100638.19;4987620;28;20041;-73
2023/08/29 05:50:40;;;;;;;10.87;6.83;;;;;;;13.50;100.00;100622.66;5000494;28;20026;-73
2023/08/29 05:53:05;;;;;;;11.27;8.60;;;;;;;13.60;100.00;100613.50;4984136;28;20023;-73
2023/08/29 05:55:31;;;;;;;9.93;7.57;;;;;;;13.71;100.00;100615.72;4987625;28;20207;-72
2023/08/29 05:57:56;;;;;;;12.30;6.90;;;;;;;13.83;100.00;100622.28;4987480;28;20282;-73
2023/08/29 06:00:21;;;;;;;13.10;8.53;;;;;;;13.88;100.00;100611.84;4991748;28;20505;-75
2023/08/29 06:02:47;;;;;;;11.57;7.93;;;;;;;13.89;100.00;100610.78;5003446;28;20041;-74
2023/08/29 06:05:13;;;;;;;11.20;7.30;;;;;;;13.88;100.00;100598.41;4993863;28;20034;-73
2023/08/29 06:07:38;;;;;;;12.77;7.22;;;;;;;13.93;100.00;100603.22;5001661;28;20083;-72
2023/08/29 06:10:07;;;;;;;15.52;7.57;;;;;;;14.01;100.00;100608.47;4995489;28;20025;-73
2023/08/29 06:12:33;;;;;;;11.32;8.05;;;;;;;14.15;100.00;100609.44;4969794;28;20041;-73
2023/08/29 06:14:58;;;;;;;14.77;8.55;;;;;;;14.24;100.00;100602.94;4995981;28;20063;-74
2023/08/29 06:17:23;;;;;;;13.37;8.43;;;;;;;14.27;100.00;100602.56;4997401;28;20033;-72
2023/08/29 06:19:49;;;;;;;11.43;7.00;;;;;;;14.37;100.00;100602.25;4996427;28;20084;-72
2023/08/29 06:22:14;;;;;;;8.63;6.00;;;;;;;14.49;100.00;100614.16;4990025;28;20060;-74
2023/08/29 06:24:39;;;;;;;9.90;6.20;;;;;;;14.57;100.00;100602.47;4992357;28;20065;-73
2023/08/29 06:27:05;;;;;;;10.47;6.67;;;;;;;14.56;100.00;100606.19;4980962;28;20041;-72
2023/08/29 06:29:30;;;;;;;11.80;6.23;;;;;;;14.55;100.00;100602.66;4995895;28;20109;-74
2023/08/29 06:31:56;;;;;;;9.40;6.35;;;;;;;14.51;100.00;100595.16;5004874;28;20022;-72
2023/08/29 06:34:22;;;;;;;10.97;6.10;;;;;;;14.67;100.00;100604.84;5003346;28;20564;-72
2023/08/29 06:36:48;;;;;;;8.88;5.93;;;;;;;14.78;100.00;100612.41;4977400;28;20031;-73
2023/08/29 06:39:13;;;;;;;9.00;5.73;;;;;;;15.02;100.00;100605.75;4940626;28;20034;-73
2023/08/29 06:41:38;;;;;;;7.20;5.63;;;;;;;15.06;100.00;100604.34;4977399;28;20030;-73
2023/08/29 06:44:04;;;;;;;10.47;4.67;;;;;;;15.20;100.00;100602.59;4966028;28;20057;-73
2023/08/29 06:46:29;;;;;;;11.90;5.97;;;;;;;15.26;100.00;100596.41;4975480;28;20070;-72
2023/08/29 06:48:55;;;;;;;8.77;6.00;;;;;;;15.25;100.00;100589.38;4964738;28;20038;-73
2023/08/29 06:51:20;;;;;;;9.73;4.90;;;;;;;15.43;100.00;100602.34;4976320;28;20026;-72
2023/08/29 06:53:45;;;;;;;8.77;6.33;;;;;;;15.54;100.00;100593.69;4975687;28;20338;-73
2023/08/29 06:56:11;;;;;;;12.77;6.83;;;;;;;15.60;100.00;100597.44;4980865;28;20080;-72
2023/08/29 06:58:37;;;;;;;9.37;6.43;;;;;;;15.74;100.00;100595.69;4973751;28;20031;-72
2023/08/29 07:01:02;;;;;;;;;;;;;;;15.85;100.00;100589.75;4979171;28;20042;-72
2023/08/29 07:03:28;;;;;;;7.47;5.28;;;;;;;15.78;100.00;100576.25;4962662;28;20637;-73
2023/08/29 07:05:53;;;;;;;9.23;6.13;;;;;;;15.88;100.00;100580.44;4975515;28;20078;-73
2023/08/29 07:08:19;;;;;;;7.78;5.75;;;;;;;15.93;100.00;100584.16;4976456;28;20118;-74
2023/08/29 07:10:44;;;;;;;7.03;4.73;;;;;;;16.03;100.00;100584.59;4974308;28;20023;-72
2023/08/29 07:13:09;;;;;;;7.20;4.97;;;;;;;16.16;100.00;100585.69;4981308;28;20069;-73
2023/08/29 07:15:35;;;;;;;8.53;5.80;;;;;;;16.22;100.00;100574.09;4973988;28;20037;-72
2023/08/29 07:18:00;;;;;;;8.57;5.97;;;;;;;16.17;100.00;100565.78;4977698;28;20382;-73
2023/08/29 07:20:25;;;;;;;6.13;4.80;;;;;;;16.27;100.00;100555.44;4973903;28;20205;-73
2023/08/29 07:22:51;;;;;;;6.80;5.47;;;;;;;16.36;100.00;100548.84;4975673;28;20042;-72
2023/08/29 07:25:17;;;;;;;7.10;5.60;;;;;;;16.39;100.00;100544.94;4976515;28;20607;-73
2023/08/29 07:27:43;;;;;;;9.45;6.43;;;;;;;16.48;100.00;100551.75;4957052;28;20053;-72
2023/08/29 07:30:14;;;;;;;5.80;4.03;;;;;;;16.67;100.00;100559.03;4975461;28;20481;-73
2023/08/29 07:32:41;;;;;;;8.23;5.25;;;;;;;16.79;100.00;100544.97;4973777;28;20289;-73
2023/08/29 07:35:06;;;;;;;8.98;5.43;;;;;;;16.72;100.00;100498.28;4981208;28;20018;-72
2023/08/29 07:37:32;;;;;;;7.38;4.43;;;;;;;16.60;100.00;100495.38;4956823;28;20053;-75
2023/08/29 07:39:57;;;;;;;6.23;4.50;;;;;;;16.98;100.00;100498.28;4964355;28;20513;-72
2023/08/29 07:42:22;;;;;;;5.00;3.67;;;;;;;17.09;100.00;100469.81;4975059;28;20031;-72
2023/08/29 07:44:48;;;;;;;6.23;3.90;;;;;;;17.29;100.00;100457.09;4974646;28;20400;-73
2023/08/29 07:47:13;;;;;;;4.20;3.23;;;;;;;17.41;100.00;100442.94;4974707;28;20038;-72
2023/08/29 07:49:38;;;;;;;8.77;3.53;;;;;;;17.34;100.00;100437.56;4973589;28;20455;-73
2023/08/29 07:52:04;;;;;;;8.00;3.83;;;;;;;17.37;100.00;100436.28;4974668;28;20416;-75
2023/08/29 07:54:30;;;;;;;5.32;3.70;;;;;;;17.44;100.00;100440.63;4971539;28;20065;-73
2023/08/29 07:56:55;;;;;;;3.25;2.42;;;;;;;17.63;100.00;100406.47;4958325;28;20043;-73
2023/08/29 07:59:22;;;;;;;4.47;3.13;;;;;;;17.76;100.00;100391.25;4976370;28;20283;-73
2023/08/29 08:01:48;;;;;;;6.65;4.75;;;;;;;17.66;100.00;100343.94;4974230;28;20038;-73
2023/08/29 08:04:13;;;;;;;4.30;2.80;;;;;;;17.77;100.00;100387.47;4983232;28;20069;-73
2023/08/29 08:06:39;;;;;;;3.30;2.40;;;;;;;17.85;100.00;100362.97;4973636;28;20083;-73
2023/08/29 08:09:05;;;;;;;5.95;2.88;;;;;;;17.69;100.00;100343.50;4983074;28;20014;-73
2023/08/29 08:11:31;;;;;;;3.30;2.30;;;;;;;17.85;100.00;100369.19;4961064;28;20030;-73
2023/08/29 08:13:56;;;;;;;4.43;3.00;;;;;;;17.92;100.00;100364.53;4974504;28;20505;-74
2023/08/29 08:16:21;;;;;;;3.77;2.97;;;;;;;17.99;100.00;100351.00;4976044;28;20040;-73
2023/08/29 08:18:47;;;;;;;4.43;2.50;;;;;;;18.11;100.00;100334.88;4975627;28;20524;-73
2023/08/29 08:21:12;;;;;;;4.77;2.37;;;;;;;18.04;100.00;100294.44;4941450;28;20049;-73
2023/08/29 08:23:38;;;;;;;4.13;2.73;;;;;;;18.03;100.00;100327.91;4972762;28;20062;-73
2023/08/29 08:26:04;;;;;;;7.07;1.97;;;;;;;17.84;100.00;100315.38;4975168;28;20038;-73
2023/08/29 08:28:29;;;;;;;5.00;2.17;;;;;;;17.79;100.00;100328.69;4972564;28;20098;-73
2023/08/29 08:30:54;;;;;;;5.38;2.10;;;;;;;17.80;100.00;100316.84;4956703;28;20173;-73
2023/08/29 08:33:20;;;;;;;3.10;1.57;;;;;;;17.83;100.00;100338.88;4975743;28;20447;-73
2023/08/29 08:35:45;;;;;;;2.63;1.80;;;;;;;17.87;100.00;100350.06;4975806;28;20039;-73
2023/08/29 08:38:11;;;;;;;5.90;2.57;;;;;;;17.65;100.00;100342.31;4975032;28;20149;-73
2023/08/29 08:40:38;;;;;;;2.95;2.60;;;;;;;17.58;100.00;100330.72;4955426;28;20360;-73
2023/08/29 08:43:05;;;;;;;7.35;2.75;;;;;;;17.49;100.00;100369.81;4984305;28;20054;-73
2023/08/29 08:45:31;;;;;;;2.45;2.25;;;;;;;17.56;100.00;100418.34;4981058;28;20034;-73
2023/08/29 08:47:58;;;;;;;2.22;1.95;;;;;;;17.58;100.00;100422.47;4958222;28;20073;-73
2023/08/29 08:50:24;;;;;;;3.50;2.55;;;;;;;17.55;100.00;100435.59;4959410;28;20619;-73
2023/08/29 08:52:51;;;;;;;10.70;2.35;;;;;;;17.56;100.00;100451.59;4972090;28;20050;-73
2023/08/29 08:55:17;;;;;;;4.40;2.20;;;;;;;17.55;100.00;100397.81;4972366;28;20014;-73
2023/08/29 08:57:43;;;;;;;2.67;2.42;;;;;;;17.50;100.00;100376.88;4954622;28;20054;-73
2023/08/29 09:00:08;;;;;;;4.47;2.33;;;;;;;17.57;100.00;100376.81;4983707;28;20030;-73
2023/08/29 09:02:36;;;;;;;2.15;1.83;;;;;;;17.48;100.00;100368.97;4971633;28;20034;-73
2023/08/29 09:05:01;;;;;;;4.13;1.90;;;;;;;17.37;100.00;100382.34;4973314;28;20508;-73
2023/08/29 09:07:27;;;;;;;7.43;2.70;;;;;;;17.40;100.00;100419.69;4971579;28;20019;-73
2023/08/29 09:10:09;;;;;;;2.50;1.70;;;;;;;17.37;100.00;100464.13;4972658;28;20038;-73
2023/08/29 09:12:35;;;;;;;2.58;1.88;;;;;;;17.42;100.00;100493.13;4969836;28;20077;-73
2023/08/29 09:15:04;;;;;;;3.65;2.00;;;;;;;17.58;100.00;100492.66;4973104;28;20038;-73
2023/08/29 09:17:29;;;;;;;3.50;2.17;;;;;;;17.75;100.00;100519.16;4975253;28;20317;-73
2023/08/29 09:19:58;;;;;;;6.17;2.37;;;;;;;17.67;100.00;100456.28;4972219;28;20493;-73
2023/08/29 09:22:23;;;;;;;2.10;1.63;;;;;;;17.54;100.00;100393.47;4954264;28;20068;-73
2023/08/29 09:24:49;;;;;;;3.30;1.93;;;;;;;17.56;100.00;100385.94;4971240;28;20185;-73
2023/08/29 09:27:14;;;;;;;1.90;1.63;;;;;;;17.77;100.00;100427.97;4971801;28;20018;-73
2023/08/29 09:29:39;;;;;;;2.17;1.63;;;;;;;17.85;100.00;100389.97;4970871;28;20590;-73
2023/08/29 09:32:15;;;;;;;2.27;1.40;;;;;;;17.97;100.00;100377.41;4973234;28;20522;-73
2023/08/29 09:34:41;;;;;;;12.13;1.90;;;;;;;18.09;100.00;100321.59;4974778;28;20042;-73
2023/08/29 09:37:07;;;;;;;3.45;1.77;;;;;;;17.97;100.00;100258.56;4973494;28;20929;-73
2023/08/29 09:39:33;;;;;;;4.22;2.92;;;;;;;17.91;100.00;100275.63;4971190;28;20031;-73
2023/08/29 09:42:06;;;;;;;3.95;1.80;;;;;;;17.92;100.00;100337.53;4972292;28;20035;-73
2023/08/29 09:44:39;;;;;;;2.85;1.52;;;;;;;18.12;100.00;100296.00;4970575;28;20042;-73
2023/08/29 09:47:06;;;;;;;1.92;1.55;;;;;;;18.26;100.00;100284.03;4973047;28;20390;-73
2023/08/29 09:49:43;;;;;;;6.22;1.77;;;;;;;18.37;100.00;100136.53;4971101;28;20499;-73
2023/08/29 09:52:10;;;;;;;1.70;1.45;;;;;;;18.54;100.00;100101.56;4974446;28;20433;-73
2023/08/29 09:54:43;;;;;;;3.90;2.20;;;;;;;18.44;100.00;100177.78;4987507;28;20050;-73
2023/08/29 09:57:10;;;;;;;5.95;2.33;;;;;;;18.61;100.00;100182.56;4989918;28;20034;-73
2023/08/29 09:59:38;;;;;;;2.22;1.95;;;;;;;18.50;100.00;100151.75;4987762;28;20034;-73
2023/08/29 10:02:04;;;;;;;3.63;2.17;;;;;;;18.50;100.00;100086.88;4972192;28;20476;-73
2023/08/29 10:04:32;;;;;;;2.10;1.65;;;;;;;18.60;100.00;100138.50;4987225;28;20042;-73
2023/08/29 10:06:59;;;;;;;6.65;2.08;;;;;;;18.58;100.00;100118.16;4985097;28;20049;-73
2023/08/29 10:09:25;;;;;;;5.00;2.03;;;;;;;18.66;100.00;100061.88;4970150;28;20022;-73
2023/08/29 10:11:52;;;;;;;4.05;2.05;;;;;;;18.74;100.00;100079.63;4985089;28;20026;-73
2023/08/29 10:14:19;;;;;;;4.22;2.58;;;;;;;18.93;100.00;100110.97;4982079;28;20027;-73
2023/08/29 10:16:46;;;;;;;4.35;2.63;;;;;;;18.81;100.00;99945.19;4987954;28;20130;-73
2023/08/29 10:19:13;;;;;;;4.18;2.38;;;;;;;19.07;100.00;99921.38;4986710;28;20034;-73
2023/08/29 10:21:39;;;;;;;;;;;;;;;19.19;100.00;99860.75;4988919;28;20018;-73
2023/08/29 10:24:05;;;;;;;4.30;2.00;;;;;;;19.44;100.00;99807.38;4988839;28;20021;-73
2023/08/29 10:26:31;;;;;;;4.00;2.10;;;;;;;19.51;100.00;99775.56;4988543;28;20141;-73
2023/08/29 10:28:57;;;;;;;2.88;2.15;;;;;;;19.47;100.00;99714.84;4970887;28;20045;-73
2023/08/29 10:31:23;;;;;;;2.45;1.80;;;;;;;19.58;100.00;99673.34;4988554;28;20034;-73
2023/08/29 10:33:48;;;;;;;1.95;1.55;;;;;;;20.01;100.00;99612.22;4989889;28;20114;-73
2023/08/29 10:36:14;;;;;;;3.70;1.50;;;;;;;20.25;100.00;99645.28;4988226;28;20509;-73
2023/08/29 10:38:40;;;;;;;8.77;1.42;;;;;;;20.75;100.00;99605.44;4990483;28;20496;-73
2023/08/29 10:41:10;;;;;;;3.35;1.63;;;;;;;21.51;100.00;99396.16;4987733;28;20030;-73
2023/08/29 10:43:36;;;;;;;2.83;2.63;;;;;;;22.45;100.00;99238.28;4987657;28;20097;-73
2023/08/29 10:46:10;;;;;;;5.32;3.25;;;;;;;22.01;100.00;98912.84;4988211;28;20026;-73
2023/08/29 10:48:39;;;;;;;3.65;3.22;;;;;;;22.50;100.00;99221.94;4984158;28;20406;-74
2023/08/29 10:51:07;;;;;;;12.15;3.42;;;;;;;21.42;100.00;99018.53;4991877;28;20034;-73
2023/08/29 10:53:39;;;;;;;6.57;3.00;;;;;;;21.66;100.00;98988.03;4972323;28;20367;-73
2023/08/29 10:56:07;;;;;;;9.45;2.88;;;;;;;22.40;100.00;99094.19;4970052;28;20048;-73
2023/08/29 10:58:44;;;;;;;5.28;2.60;;;;;;;21.79;100.00;98875.25;4989935;28;20025;-73
2023/08/29 11:01:28;;;;;;;7.07;2.95;;;;;;;21.10;100.00;99156.41;4987133;28;20109;-73
2023/08/29 11:03:55;;;;;;;5.38;2.45;;;;;;;21.81;100.00;99322.06;4989105;28;20046;-74
2023/08/29 11:06:25;;;;;;;4.63;2.15;;;;;;;21.99;100.00;99010.97;4990708;28;20021;-71
2023/08/29 11:09:20;;;;;;;3.00;2.30;;;;;;;22.52;99.15;98697.66;4987262;28;20035;-73
2023/08/29 11:12:06;;;;;;;8.38;1.90;;;;;;;22.97;100.00;99164.28;4984393;28;20050;-73
2023/08/29 11:14:51;;;;;;;3.92;1.92;;;;;;;23.34;93.55;98669.31;4983943;28;20626;-74